sensor_id;sensor_type;location;lat;lon;timestamp;P1;durP1;ratioP1;P2;durP2;ratioP2
75446;SDS011;64024;55.820;37.574;2023-06-22T00:00:48;9.90;;;5.10;;
75446;SDS011;64024;55.820;37.574;2023-06-22T00:03:14;7.80;;;3.95;;
75446;SDS011;64024;55.820;37.574;2023-06-22T00:05:40;6.65;;;4.32;;
75446;SDS011;64024;55.820;37.574;2023-06-22T00:08:06;8.93;;;4.82;;
75446;SDS011;64024;55.820;37.574;2023-06-22T00:10:32;7.07;;;4.13;;
75446;SDS011;64024;55.820;37.574;2023-06-22T00:12:57;11.25;;;5.25;;
75446;SDS011;64024;55.820;37.574;2023-06-22T00:15:23;10.93;;;5.35;;
75446;SDS011;64024;55.820;37.574;2023-06-22T00:17:49;12.93;;;4.40;;
75446;SDS011;64024;55.820;37.574;2023-06-22T00:20:15;7.93;;;4.72;;
75446;SDS011;64024;55.820;37.574;2023-06-22T00:22:43;6.68;;;4.50;;
75446;SDS011;64024;55.820;37.574;2023-06-22T00:25:09;6.80;;;4.45;;
75446;SDS011;64024;55.820;37.574;2023-06-22T00:27:35;8.52;;;4.60;;
75446;SDS011;64024;55.820;37.574;2023-06-22T00:30:01;7.95;;;5.13;;
75446;SDS011;64024;55.820;37.574;2023-06-22T00:32:27;11.25;;;4.82;;
75446;SDS011;64024;55.820;37.574;2023-06-22T00:34:53;7.32;;;4.78;;
75446;SDS011;64024;55.820;37.574;2023-06-22T00:37:19;8.23;;;4.30;;
75446;SDS011;64024;55.820;37.574;2023-06-22T00:39:47;7.13;;;4.07;;
75446;SDS011;64024;55.820;37.574;2023-06-22T00:42:14;6.32;;;4.07;;
75446;SDS011;64024;55.820;37.574;2023-06-22T00:44:39;8.32;;;4.78;;
75446;SDS011;64024;55.820;37.574;2023-06-22T00:47:05;12.75;;;5.70;;
75446;SDS011;64024;55.820;37.574;2023-06-22T00:49:31;7.05;;;4.25;;
75446;SDS011;64024;55.820;37.574;2023-06-22T00:51:57;7.70;;;4.20;;
75446;SDS011;64024;55.820;37.574;2023-06-22T00:54:23;9.20;;;4.22;;
75446;SDS011;64024;55.820;37.574;2023-06-22T00:56:53;7.07;;;4.30;;
75446;SDS011;64024;55.820;37.574;2023-06-22T00:59:21;8.48;;;4.15;;
75446;SDS011;64024;55.820;37.574;2023-06-22T01:04:13;5.97;;;4.18;;
75446;SDS011;64024;55.820;37.574;2023-06-22T01:06:43;7.85;;;4.35;;
75446;SDS011;64024;55.820;37.574;2023-06-22T01:09:19;10.45;;;4.22;;
75446;SDS011;64024;55.820;37.574;2023-06-22T01:11:53;6.30;;;4.15;;
75446;SDS011;64024;55.820;37.574;2023-06-22T01:14:34;9.23;;;4.40;;
75446;SDS011;64024;55.820;37.574;2023-06-22T01:17:07;5.60;;;4.13;;
75446;SDS011;64024;55.820;37.574;2023-06-22T01:19:37;6.72;;;4.18;;
75446;SDS011;64024;55.820;37.574;2023-06-22T01:22:13;7.60;;;4.90;;
75446;SDS011;64024;55.820;37.574;2023-06-22T01:24:51;8.43;;;4.30;;
75446;SDS011;64024;55.820;37.574;2023-06-22T01:30:02;6.80;;;3.97;;
75446;SDS011;64024;55.820;37.574;2023-06-22T01:32:31;6.47;;;3.70;;
75446;SDS011;64024;55.820;37.574;2023-06-22T01:35:00;7.93;;;5.00;;
75446;SDS011;64024;55.820;37.574;2023-06-22T01:37:28;7.00;;;3.92;;
75446;SDS011;64024;55.820;37.574;2023-06-22T01:39:56;6.75;;;4.22;;
75446;SDS011;64024;55.820;37.574;2023-06-22T01:42:23;9.38;;;3.97;;
75446;SDS011;64024;55.820;37.574;2023-06-22T01:44:52;11.73;;;4.18;;
75446;SDS011;64024;55.820;37.574;2023-06-22T01:47:20;15.73;;;4.80;;
75446;SDS011;64024;55.820;37.574;2023-06-22T01:49:49;7.05;;;3.65;;
75446;SDS011;64024;55.820;37.574;2023-06-22T01:52:18;14.20;;;5.90;;
75446;SDS011;64024;55.820;37.574;2023-06-22T01:54:46;8.18;;;3.90;;
75446;SDS011;64024;55.820;37.574;2023-06-22T01:57:13;6.65;;;3.80;;
75446;SDS011;64024;55.820;37.574;2023-06-22T01:59:41;6.60;;;3.60;;
75446;SDS011;64024;55.820;37.574;2023-06-22T02:02:15;5.97;;;3.63;;
75446;SDS011;64024;55.820;37.574;2023-06-22T02:04:55;7.75;;;3.75;;
75446;SDS011;64024;55.820;37.574;2023-06-22T02:07:24;6.18;;;3.58;;
75446;SDS011;64024;55.820;37.574;2023-06-22T02:09:57;7.78;;;3.72;;
75446;SDS011;64024;55.820;37.574;2023-06-22T02:12:25;6.72;;;4.20;;
75446;SDS011;64024;55.820;37.574;2023-06-22T02:14:53;5.32;;;3.63;;
75446;SDS011;64024;55.820;37.574;2023-06-22T02:17:19;6.05;;;4.80;;
75446;SDS011;64024;55.820;37.574;2023-06-22T02:19:46;6.05;;;4.35;;
75446;SDS011;64024;55.820;37.574;2023-06-22T02:22:11;7.35;;;4.85;;
75446;SDS011;64024;55.820;37.574;2023-06-22T02:24:40;8.85;;;5.25;;
75446;SDS011;64024;55.820;37.574;2023-06-22T02:27:05;8.38;;;6.03;;
75446;SDS011;64024;55.820;37.574;2023-06-22T02:29:32;7.10;;;5.80;;
75446;SDS011;64024;55.820;37.574;2023-06-22T02:31:58;10.02;;;5.53;;
75446;SDS011;64024;55.820;37.574;2023-06-22T02:34:24;6.25;;;3.88;;
75446;SDS011;64024;55.820;37.574;2023-06-22T02:36:49;5.13;;;4.50;;
75446;SDS011;64024;55.820;37.574;2023-06-22T02:39:21;9.63;;;5.95;;
75446;SDS011;64024;55.820;37.574;2023-06-22T02:41:49;6.95;;;5.53;;
75446;SDS011;64024;55.820;37.574;2023-06-22T02:44:16;11.43;;;7.05;;
75446;SDS011;64024;55.820;37.574;2023-06-22T02:46:42;8.77;;;5.85;;
75446;SDS011;64024;55.820;37.574;2023-06-22T02:49:09;9.27;;;6.15;;
75446;SDS011;64024;55.820;37.574;2023-06-22T02:51:39;7.88;;;6.40;;
75446;SDS011;64024;55.820;37.574;2023-06-22T02:54:10;10.18;;;7.10;;
75446;SDS011;64024;55.820;37.574;2023-06-22T02:56:36;7.20;;;6.43;;
75446;SDS011;64024;55.820;37.574;2023-06-22T02:59:02;7.90;;;6.60;;
75446;SDS011;64024;55.820;37.574;2023-06-22T03:01:28;7.78;;;6.00;;
75446;SDS011;64024;55.820;37.574;2023-06-22T03:03:57;10.98;;;7.28;;
75446;SDS011;64024;55.820;37.574;2023-06-22T03:06:23;9.45;;;7.00;;
75446;SDS011;64024;55.820;37.574;2023-06-22T03:08:56;8.32;;;7.43;;
75446;SDS011;64024;55.820;37.574;2023-06-22T03:11:24;7.60;;;6.75;;
75446;SDS011;64024;55.820;37.574;2023-06-22T03:13:50;7.68;;;6.68;;
75446;SDS011;64024;55.820;37.574;2023-06-22T03:18:43;8.77;;;7.35;;
75446;SDS011;64024;55.820;37.574;2023-06-22T03:21:09;7.93;;;7.15;;
75446;SDS011;64024;55.820;37.574;2023-06-22T03:23:34;8.05;;;7.25;;
75446;SDS011;64024;55.820;37.574;2023-06-22T03:26:01;8.40;;;7.25;;
75446;SDS011;64024;55.820;37.574;2023-06-22T03:28:27;8.68;;;7.18;;
75446;SDS011;64024;55.820;37.574;2023-06-22T03:30:52;9.57;;;6.97;;
75446;SDS011;64024;55.820;37.574;2023-06-22T03:33:18;7.65;;;6.65;;
75446;SDS011;64024;55.820;37.574;2023-06-22T03:35:43;8.85;;;7.25;;
75446;SDS011;64024;55.820;37.574;2023-06-22T03:38:09;8.80;;;6.95;;
75446;SDS011;64024;55.820;37.574;2023-06-22T03:40:34;10.38;;;6.82;;
75446;SDS011;64024;55.820;37.574;2023-06-22T03:43:00;7.90;;;7.10;;
75446;SDS011;64024;55.820;37.574;2023-06-22T03:45:26;9.20;;;6.10;;
75446;SDS011;64024;55.820;37.574;2023-06-22T03:47:52;7.15;;;6.45;;
75446;SDS011;64024;55.820;37.574;2023-06-22T03:50:18;8.45;;;6.05;;
75446;SDS011;64024;55.820;37.574;2023-06-22T03:52:45;8.43;;;5.55;;
75446;SDS011;64024;55.820;37.574;2023-06-22T03:55:12;10.50;;;7.32;;
75446;SDS011;64024;55.820;37.574;2023-06-22T03:57:37;8.27;;;6.55;;
75446;SDS011;64024;55.820;37.574;2023-06-22T04:00:03;8.65;;;6.55;;
75446;SDS011;64024;55.820;37.574;2023-06-22T04:02:33;9.90;;;7.13;;
75446;SDS011;64024;55.820;37.574;2023-06-22T04:04:58;7.50;;;6.78;;
75446;SDS011;64024;55.820;37.574;2023-06-22T04:07:24;7.07;;;6.38;;
75446;SDS011;64024;55.820;37.574;2023-06-22T04:09:50;8.70;;;7.38;;
75446;SDS011;64024;55.820;37.574;2023-06-22T04:12:15;8.40;;;7.53;;
75446;SDS011;64024;55.820;37.574;2023-06-22T04:14:41;7.97;;;7.13;;
75446;SDS011;64024;55.820;37.574;2023-06-22T04:17:06;7.78;;;6.85;;
75446;SDS011;64024;55.820;37.574;2023-06-22T04:19:32;7.95;;;6.88;;
75446;SDS011;64024;55.820;37.574;2023-06-22T04:21:58;8.40;;;7.60;;
75446;SDS011;64024;55.820;37.574;2023-06-22T04:24:23;8.40;;;7.47;;
75446;SDS011;64024;55.820;37.574;2023-06-22T04:26:49;8.80;;;7.90;;
75446;SDS011;64024;55.820;37.574;2023-06-22T04:29:20;11.07;;;6.82;;
75446;SDS011;64024;55.820;37.574;2023-06-22T04:31:54;7.30;;;6.22;;
75446;SDS011;64024;55.820;37.574;2023-06-22T04:34:21;6.80;;;6.20;;
75446;SDS011;64024;55.820;37.574;2023-06-22T04:36:46;6.18;;;5.50;;
75446;SDS011;64024;55.820;37.574;2023-06-22T04:39:12;6.32;;;5.47;;
75446;SDS011;64024;55.820;37.574;2023-06-22T04:41:38;6.75;;;4.65;;
75446;SDS011;64024;55.820;37.574;2023-06-22T04:44:11;6.80;;;4.95;;
75446;SDS011;64024;55.820;37.574;2023-06-22T04:46:37;6.78;;;4.97;;
75446;SDS011;64024;55.820;37.574;2023-06-22T04:49:06;6.13;;;4.82;;
75446;SDS011;64024;55.820;37.574;2023-06-22T04:51:44;6.43;;;5.20;;
75446;SDS011;64024;55.820;37.574;2023-06-22T04:54:10;6.28;;;5.40;;
75446;SDS011;64024;55.820;37.574;2023-06-22T04:56:36;7.03;;;5.20;;
75446;SDS011;64024;55.820;37.574;2023-06-22T04:59:02;6.05;;;5.45;;
75446;SDS011;64024;55.820;37.574;2023-06-22T05:01:28;6.32;;;5.00;;
75446;SDS011;64024;55.820;37.574;2023-06-22T05:03:56;5.45;;;4.53;;
75446;SDS011;64024;55.820;37.574;2023-06-22T05:06:23;5.80;;;4.70;;
75446;SDS011;64024;55.820;37.574;2023-06-22T05:08:55;8.18;;;4.97;;
75446;SDS011;64024;55.820;37.574;2023-06-22T05:11:27;6.43;;;4.60;;
75446;SDS011;64024;55.820;37.574;2023-06-22T05:13:54;8.32;;;6.18;;
75446;SDS011;64024;55.820;37.574;2023-06-22T05:16:20;5.03;;;4.22;;
75446;SDS011;64024;55.820;37.574;2023-06-22T05:18:50;5.82;;;4.38;;
75446;SDS011;64024;55.820;37.574;2023-06-22T05:21:17;5.78;;;4.28;;
75446;SDS011;64024;55.820;37.574;2023-06-22T05:23:44;5.20;;;4.30;;
75446;SDS011;64024;55.820;37.574;2023-06-22T05:26:10;4.93;;;4.25;;
75446;SDS011;64024;55.820;37.574;2023-06-22T05:28:35;5.20;;;3.65;;
75446;SDS011;64024;55.820;37.574;2023-06-22T05:31:01;10.85;;;4.28;;
75446;SDS011;64024;55.820;37.574;2023-06-22T05:33:27;6.10;;;4.82;;
75446;SDS011;64024;55.820;37.574;2023-06-22T05:35:53;6.05;;;4.80;;
75446;SDS011;64024;55.820;37.574;2023-06-22T05:38:18;6.07;;;4.47;;
75446;SDS011;64024;55.820;37.574;2023-06-22T05:40:44;4.95;;;4.03;;
75446;SDS011;64024;55.820;37.574;2023-06-22T05:43:10;4.82;;;3.47;;
75446;SDS011;64024;55.820;37.574;2023-06-22T05:45:35;5.45;;;4.50;;
75446;SDS011;64024;55.820;37.574;2023-06-22T05:48:01;6.68;;;4.20;;
75446;SDS011;64024;55.820;37.574;2023-06-22T05:50:27;6.20;;;3.75;;
75446;SDS011;64024;55.820;37.574;2023-06-22T05:52:52;4.75;;;3.78;;
75446;SDS011;64024;55.820;37.574;2023-06-22T05:55:18;4.35;;;3.42;;
75446;SDS011;64024;55.820;37.574;2023-06-22T05:57:44;5.78;;;4.18;;
75446;SDS011;64024;55.820;37.574;2023-06-22T06:00:10;5.45;;;4.25;;
75446;SDS011;64024;55.820;37.574;2023-06-22T06:05:08;4.80;;;4.05;;
75446;SDS011;64024;55.820;37.574;2023-06-22T06:07:39;5.20;;;4.18;;
75446;SDS011;64024;55.820;37.574;2023-06-22T06:10:05;8.52;;;3.90;;
75446;SDS011;64024;55.820;37.574;2023-06-22T06:12:32;6.88;;;4.63;;
75446;SDS011;64024;55.820;37.574;2023-06-22T06:14:57;13.57;;;5.43;;
75446;SDS011;64024;55.820;37.574;2023-06-22T06:17:23;8.88;;;5.85;;
75446;SDS011;64024;55.820;37.574;2023-06-22T06:19:49;6.50;;;4.75;;
75446;SDS011;64024;55.820;37.574;2023-06-22T06:22:14;5.53;;;3.88;;
75446;SDS011;64024;55.820;37.574;2023-06-22T06:24:40;4.75;;;4.18;;
75446;SDS011;64024;55.820;37.574;2023-06-22T06:27:06;6.28;;;4.03;;
75446;SDS011;64024;55.820;37.574;2023-06-22T06:29:32;4.13;;;3.47;;
75446;SDS011;64024;55.820;37.574;2023-06-22T06:31:57;7.03;;;4.40;;
75446;SDS011;64024;55.820;37.574;2023-06-22T06:34:23;6.03;;;5.18;;
75446;SDS011;64024;55.820;37.574;2023-06-22T06:36:49;8.73;;;6.65;;
75446;SDS011;64024;55.820;37.574;2023-06-22T06:39:14;8.95;;;7.97;;
75446;SDS011;64024;55.820;37.574;2023-06-22T06:41:41;8.73;;;7.85;;
75446;SDS011;64024;55.820;37.574;2023-06-22T06:44:07;7.90;;;6.95;;
75446;SDS011;64024;55.820;37.574;2023-06-22T06:46:33;11.05;;;8.35;;
75446;SDS011;64024;55.820;37.574;2023-06-22T06:48:58;14.95;;;8.43;;
75446;SDS011;64024;55.820;37.574;2023-06-22T06:51:24;10.10;;;9.10;;
75446;SDS011;64024;55.820;37.574;2023-06-22T06:53:49;8.65;;;7.70;;
75446;SDS011;64024;55.820;37.574;2023-06-22T06:56:15;6.97;;;6.05;;
75446;SDS011;64024;55.820;37.574;2023-06-22T06:58:41;8.15;;;6.47;;
75446;SDS011;64024;55.820;37.574;2023-06-22T07:01:07;5.13;;;4.20;;
75446;SDS011;64024;55.820;37.574;2023-06-22T07:03:33;13.20;;;5.65;;
75446;SDS011;64024;55.820;37.574;2023-06-22T07:05:59;8.48;;;5.80;;
75446;SDS011;64024;55.820;37.574;2023-06-22T07:08:25;4.70;;;3.60;;
75446;SDS011;64024;55.820;37.574;2023-06-22T07:10:54;4.90;;;3.60;;
75446;SDS011;64024;55.820;37.574;2023-06-22T07:13:20;7.20;;;6.05;;
75446;SDS011;64024;55.820;37.574;2023-06-22T07:15:46;4.43;;;3.90;;
75446;SDS011;64024;55.820;37.574;2023-06-22T07:18:12;5.82;;;3.47;;
75446;SDS011;64024;55.820;37.574;2023-06-22T07:20:38;7.43;;;4.55;;
75446;SDS011;64024;55.820;37.574;2023-06-22T07:23:04;6.03;;;5.10;;
75446;SDS011;64024;55.820;37.574;2023-06-22T07:25:30;8.35;;;4.82;;
75446;SDS011;64024;55.820;37.574;2023-06-22T07:27:57;6.55;;;4.25;;
75446;SDS011;64024;55.820;37.574;2023-06-22T07:30:27;6.20;;;4.30;;
75446;SDS011;64024;55.820;37.574;2023-06-22T07:32:53;4.75;;;3.85;;
75446;SDS011;64024;55.820;37.574;2023-06-22T07:35:19;4.53;;;4.13;;
75446;SDS011;64024;55.820;37.574;2023-06-22T07:37:45;5.95;;;4.13;;
75446;SDS011;64024;55.820;37.574;2023-06-22T07:40:11;6.22;;;5.25;;
75446;SDS011;64024;55.820;37.574;2023-06-22T07:42:37;6.28;;;5.68;;
75446;SDS011;64024;55.820;37.574;2023-06-22T07:45:04;7.72;;;6.93;;
75446;SDS011;64024;55.820;37.574;2023-06-22T07:47:31;7.93;;;6.68;;
75446;SDS011;64024;55.820;37.574;2023-06-22T07:50:00;7.57;;;6.88;;
75446;SDS011;64024;55.820;37.574;2023-06-22T07:52:27;19.92;;;8.50;;
75446;SDS011;64024;55.820;37.574;2023-06-22T07:57:19;6.00;;;5.13;;
75446;SDS011;64024;55.820;37.574;2023-06-22T07:59:45;7.25;;;6.25;;
75446;SDS011;64024;55.820;37.574;2023-06-22T08:02:10;6.85;;;6.15;;
75446;SDS011;64024;55.820;37.574;2023-06-22T08:04:36;7.85;;;6.80;;
75446;SDS011;64024;55.820;37.574;2023-06-22T08:07:02;8.23;;;6.75;;
75446;SDS011;64024;55.820;37.574;2023-06-22T08:09:29;7.72;;;6.57;;
75446;SDS011;64024;55.820;37.574;2023-06-22T08:11:56;9.07;;;6.68;;
75446;SDS011;64024;55.820;37.574;2023-06-22T08:14:23;10.23;;;6.68;;
75446;SDS011;64024;55.820;37.574;2023-06-22T08:16:50;7.88;;;7.07;;
75446;SDS011;64024;55.820;37.574;2023-06-22T08:19:16;7.93;;;7.20;;
75446;SDS011;64024;55.820;37.574;2023-06-22T08:21:42;8.00;;;6.88;;
75446;SDS011;64024;55.820;37.574;2023-06-22T08:24:08;9.38;;;5.88;;
75446;SDS011;64024;55.820;37.574;2023-06-22T08:26:33;7.60;;;6.55;;
75446;SDS011;64024;55.820;37.574;2023-06-22T08:29:04;9.02;;;6.50;;
75446;SDS011;64024;55.820;37.574;2023-06-22T08:31:31;5.63;;;4.55;;
75446;SDS011;64024;55.820;37.574;2023-06-22T08:33:58;7.88;;;4.65;;
75446;SDS011;64024;55.820;37.574;2023-06-22T08:36:24;4.80;;;3.83;;
75446;SDS011;64024;55.820;37.574;2023-06-22T08:38:50;5.28;;;3.75;;
75446;SDS011;64024;55.820;37.574;2023-06-22T08:41:19;4.95;;;4.00;;
75446;SDS011;64024;55.820;37.574;2023-06-22T08:43:44;9.35;;;4.30;;
75446;SDS011;64024;55.820;37.574;2023-06-22T08:46:10;7.50;;;3.92;;
75446;SDS011;64024;55.820;37.574;2023-06-22T08:48:36;4.97;;;4.13;;
75446;SDS011;64024;55.820;37.574;2023-06-22T08:51:02;7.95;;;6.13;;
75446;SDS011;64024;55.820;37.574;2023-06-22T08:53:28;9.02;;;7.03;;
75446;SDS011;64024;55.820;37.574;2023-06-22T08:55:54;7.07;;;6.38;;
75446;SDS011;64024;55.820;37.574;2023-06-22T08:58:19;7.32;;;6.63;;
75446;SDS011;64024;55.820;37.574;2023-06-22T09:00:46;7.88;;;7.07;;
75446;SDS011;64024;55.820;37.574;2023-06-22T09:03:12;7.28;;;6.57;;
75446;SDS011;64024;55.820;37.574;2023-06-22T09:05:38;8.23;;;7.43;;
75446;SDS011;64024;55.820;37.574;2023-06-22T09:08:04;7.63;;;6.85;;
75446;SDS011;64024;55.820;37.574;2023-06-22T09:10:30;8.23;;;6.90;;
75446;SDS011;64024;55.820;37.574;2023-06-22T09:12:56;8.55;;;6.72;;
75446;SDS011;64024;55.820;37.574;2023-06-22T09:15:22;7.97;;;7.18;;
75446;SDS011;64024;55.820;37.574;2023-06-22T09:17:48;6.72;;;5.95;;
75446;SDS011;64024;55.820;37.574;2023-06-22T09:20:14;6.70;;;6.00;;
75446;SDS011;64024;55.820;37.574;2023-06-22T09:22:40;9.13;;;6.82;;
75446;SDS011;64024;55.820;37.574;2023-06-22T09:25:06;8.27;;;7.47;;
75446;SDS011;64024;55.820;37.574;2023-06-22T09:27:32;7.13;;;6.43;;
75446;SDS011;64024;55.820;37.574;2023-06-22T09:29:58;6.32;;;5.70;;
75446;SDS011;64024;55.820;37.574;2023-06-22T09:32:24;7.43;;;6.15;;
75446;SDS011;64024;55.820;37.574;2023-06-22T09:34:51;4.95;;;4.45;;
75446;SDS011;64024;55.820;37.574;2023-06-22T09:37:16;5.82;;;4.93;;
75446;SDS011;64024;55.820;37.574;2023-06-22T09:39:42;4.57;;;3.80;;
75446;SDS011;64024;55.820;37.574;2023-06-22T09:42:08;5.43;;;4.43;;
75446;SDS011;64024;55.820;37.574;2023-06-22T09:44:34;4.32;;;3.88;;
75446;SDS011;64024;55.820;37.574;2023-06-22T09:47:00;4.55;;;3.47;;
75446;SDS011;64024;55.820;37.574;2023-06-22T09:49:25;7.55;;;4.05;;
75446;SDS011;64024;55.820;37.574;2023-06-22T09:51:51;5.80;;;4.13;;
75446;SDS011;64024;55.820;37.574;2023-06-22T09:54:17;4.85;;;3.60;;
75446;SDS011;64024;55.820;37.574;2023-06-22T09:56:43;5.72;;;3.63;;
75446;SDS011;64024;55.820;37.574;2023-06-22T09:59:09;6.43;;;4.30;;
75446;SDS011;64024;55.820;37.574;2023-06-22T10:01:35;4.57;;;3.13;;
75446;SDS011;64024;55.820;37.574;2023-06-22T10:04:01;4.18;;;3.20;;
75446;SDS011;64024;55.820;37.574;2023-06-22T10:06:27;7.40;;;3.75;;
75446;SDS011;64024;55.820;37.574;2023-06-22T10:08:53;4.13;;;3.13;;
75446;SDS011;64024;55.820;37.574;2023-06-22T10:11:19;4.00;;;3.47;;
75446;SDS011;64024;55.820;37.574;2023-06-22T10:13:45;5.93;;;3.88;;
75446;SDS011;64024;55.820;37.574;2023-06-22T10:16:10;6.93;;;3.70;;
75446;SDS011;64024;55.820;37.574;2023-06-22T10:18:36;5.40;;;3.65;;
75446;SDS011;64024;55.820;37.574;2023-06-22T10:21:01;4.88;;;3.72;;
75446;SDS011;64024;55.820;37.574;2023-06-22T10:23:27;5.63;;;4.10;;
75446;SDS011;64024;55.820;37.574;2023-06-22T10:25:53;7.05;;;5.10;;
75446;SDS011;64024;55.820;37.574;2023-06-22T10:28:19;7.65;;;5.57;;
75446;SDS011;64024;55.820;37.574;2023-06-22T10:30:44;5.45;;;4.78;;
75446;SDS011;64024;55.820;37.574;2023-06-22T10:33:10;7.30;;;6.30;;
75446;SDS011;64024;55.820;37.574;2023-06-22T10:35:37;7.90;;;6.28;;
75446;SDS011;64024;55.820;37.574;2023-06-22T10:38:03;7.55;;;6.75;;
75446;SDS011;64024;55.820;37.574;2023-06-22T10:40:29;7.72;;;6.70;;
75446;SDS011;64024;55.820;37.574;2023-06-22T10:42:55;8.30;;;5.07;;
75446;SDS011;64024;55.820;37.574;2023-06-22T10:45:21;5.43;;;4.10;;
75446;SDS011;64024;55.820;37.574;2023-06-22T10:47:47;4.82;;;4.05;;
75446;SDS011;64024;55.820;37.574;2023-06-22T10:50:13;4.05;;;3.33;;
75446;SDS011;64024;55.820;37.574;2023-06-22T10:52:39;4.53;;;3.58;;
75446;SDS011;64024;55.820;37.574;2023-06-22T10:55:06;5.78;;;4.40;;
75446;SDS011;64024;55.820;37.574;2023-06-22T10:57:33;3.83;;;3.40;;
75446;SDS011;64024;55.820;37.574;2023-06-22T10:59:59;5.25;;;3.90;;
75446;SDS011;64024;55.820;37.574;2023-06-22T11:02:25;4.18;;;3.38;;
75446;SDS011;64024;55.820;37.574;2023-06-22T11:04:53;5.13;;;3.80;;
75446;SDS011;64024;55.820;37.574;2023-06-22T11:07:19;3.75;;;3.35;;
75446;SDS011;64024;55.820;37.574;2023-06-22T11:09:45;4.80;;;4.00;;
75446;SDS011;64024;55.820;37.574;2023-06-22T11:12:10;7.65;;;5.95;;
75446;SDS011;64024;55.820;37.574;2023-06-22T11:14:36;8.05;;;6.68;;
75446;SDS011;64024;55.820;37.574;2023-06-22T11:17:03;7.38;;;5.07;;
75446;SDS011;64024;55.820;37.574;2023-06-22T11:19:29;7.53;;;5.35;;
75446;SDS011;64024;55.820;37.574;2023-06-22T11:21:55;6.63;;;4.60;;
75446;SDS011;64024;55.820;37.574;2023-06-22T11:24:21;5.45;;;4.43;;
75446;SDS011;64024;55.820;37.574;2023-06-22T11:26:47;6.18;;;4.80;;
75446;SDS011;64024;55.820;37.574;2023-06-22T11:29:12;9.40;;;5.78;;
75446;SDS011;64024;55.820;37.574;2023-06-22T11:31:38;9.45;;;4.93;;
75446;SDS011;64024;55.820;37.574;2023-06-22T11:34:04;8.43;;;4.85;;
75446;SDS011;64024;55.820;37.574;2023-06-22T11:36:29;6.53;;;4.75;;
75446;SDS011;64024;55.820;37.574;2023-06-22T11:38:58;6.03;;;4.97;;
75446;SDS011;64024;55.820;37.574;2023-06-22T11:41:24;6.53;;;4.82;;
75446;SDS011;64024;55.820;37.574;2023-06-22T11:43:49;7.85;;;5.60;;
75446;SDS011;64024;55.820;37.574;2023-06-22T11:46:15;8.30;;;5.13;;
75446;SDS011;64024;55.820;37.574;2023-06-22T11:48:41;6.10;;;4.25;;
75446;SDS011;64024;55.820;37.574;2023-06-22T11:53:34;6.10;;;3.65;;
75446;SDS011;64024;55.820;37.574;2023-06-22T11:56:00;7.15;;;4.30;;
75446;SDS011;64024;55.820;37.574;2023-06-22T11:58:26;5.38;;;4.20;;
75446;SDS011;64024;55.820;37.574;2023-06-22T12:00:52;7.55;;;5.07;;
75446;SDS011;64024;55.820;37.574;2023-06-22T12:05:46;6.10;;;4.13;;
75446;SDS011;64024;55.820;37.574;2023-06-22T12:08:12;6.72;;;4.28;;
75446;SDS011;64024;55.820;37.574;2023-06-22T12:10:39;4.70;;;4.03;;
75446;SDS011;64024;55.820;37.574;2023-06-22T12:13:04;6.38;;;3.88;;
75446;SDS011;64024;55.820;37.574;2023-06-22T12:15:30;6.63;;;4.53;;
75446;SDS011;64024;55.820;37.574;2023-06-22T12:17:56;8.43;;;5.40;;
75446;SDS011;64024;55.820;37.574;2023-06-22T12:20:21;6.57;;;4.95;;
75446;SDS011;64024;55.820;37.574;2023-06-22T12:22:47;5.63;;;4.45;;
75446;SDS011;64024;55.820;37.574;2023-06-22T12:25:13;5.50;;;4.55;;
75446;SDS011;64024;55.820;37.574;2023-06-22T12:27:38;7.97;;;5.18;;
75446;SDS011;64024;55.820;37.574;2023-06-22T12:30:04;6.20;;;4.60;;
75446;SDS011;64024;55.820;37.574;2023-06-22T12:32:30;7.63;;;5.50;;
75446;SDS011;64024;55.820;37.574;2023-06-22T12:34:56;15.32;;;7.38;;
75446;SDS011;64024;55.820;37.574;2023-06-22T12:37:23;5.53;;;4.78;;
75446;SDS011;64024;55.820;37.574;2023-06-22T12:39:48;8.23;;;5.40;;
75446;SDS011;64024;55.820;37.574;2023-06-22T12:42:15;9.93;;;5.70;;
75446;SDS011;64024;55.820;37.574;2023-06-22T12:44:40;8.25;;;5.22;;
75446;SDS011;64024;55.820;37.574;2023-06-22T12:47:07;6.63;;;5.93;;
75446;SDS011;64024;55.820;37.574;2023-06-22T12:49:36;5.95;;;5.43;;
75446;SDS011;64024;55.820;37.574;2023-06-22T12:52:02;10.75;;;6.28;;
75446;SDS011;64024;55.820;37.574;2023-06-22T12:54:28;8.32;;;4.95;;
75446;SDS011;64024;55.820;37.574;2023-06-22T12:56:55;8.38;;;4.60;;
75446;SDS011;64024;55.820;37.574;2023-06-22T12:59:21;6.25;;;4.97;;
75446;SDS011;64024;55.820;37.574;2023-06-22T13:01:46;5.85;;;4.80;;
75446;SDS011;64024;55.820;37.574;2023-06-22T13:04:12;9.60;;;4.60;;
75446;SDS011;64024;55.820;37.574;2023-06-22T13:06:42;5.95;;;3.92;;
75446;SDS011;64024;55.820;37.574;2023-06-22T13:09:09;9.85;;;5.40;;
75446;SDS011;64024;55.820;37.574;2023-06-22T13:11:35;8.05;;;5.28;;
75446;SDS011;64024;55.820;37.574;2023-06-22T13:14:01;4.82;;;4.32;;
75446;SDS011;64024;55.820;37.574;2023-06-22T13:16:26;5.18;;;4.43;;
75446;SDS011;64024;55.820;37.574;2023-06-22T13:18:52;5.28;;;4.78;;
75446;SDS011;64024;55.820;37.574;2023-06-22T13:21:18;5.20;;;4.25;;
75446;SDS011;64024;55.820;37.574;2023-06-22T13:23:43;7.13;;;4.53;;
75446;SDS011;64024;55.820;37.574;2023-06-22T13:26:09;7.65;;;4.68;;
75446;SDS011;64024;55.820;37.574;2023-06-22T13:28:35;6.07;;;4.65;;
75446;SDS011;64024;55.820;37.574;2023-06-22T13:31:00;5.43;;;4.63;;
75446;SDS011;64024;55.820;37.574;2023-06-22T13:33:26;5.43;;;4.93;;
75446;SDS011;64024;55.820;37.574;2023-06-22T13:35:52;7.65;;;5.90;;
75446;SDS011;64024;55.820;37.574;2023-06-22T13:38:17;7.68;;;6.68;;
75446;SDS011;64024;55.820;37.574;2023-06-22T13:40:43;12.80;;;7.25;;
75446;SDS011;64024;55.820;37.574;2023-06-22T13:43:09;8.73;;;7.72;;
75446;SDS011;64024;55.820;37.574;2023-06-22T13:45:34;7.95;;;5.97;;
75446;SDS011;64024;55.820;37.574;2023-06-22T13:48:00;6.85;;;5.70;;
75446;SDS011;64024;55.820;37.574;2023-06-22T13:50:27;6.53;;;5.50;;
75446;SDS011;64024;55.820;37.574;2023-06-22T13:52:54;6.93;;;4.88;;
75446;SDS011;64024;55.820;37.574;2023-06-22T13:55:20;5.97;;;4.95;;
75446;SDS011;64024;55.820;37.574;2023-06-22T13:57:46;11.45;;;6.03;;
75446;SDS011;64024;55.820;37.574;2023-06-22T14:00:12;5.93;;;5.22;;
75446;SDS011;64024;55.820;37.574;2023-06-22T14:02:38;7.03;;;4.85;;
75446;SDS011;64024;55.820;37.574;2023-06-22T14:05:08;4.88;;;4.00;;
75446;SDS011;64024;55.820;37.574;2023-06-22T14:07:34;4.97;;;3.83;;
75446;SDS011;64024;55.820;37.574;2023-06-22T14:10:00;4.35;;;3.95;;
75446;SDS011;64024;55.820;37.574;2023-06-22T14:12:26;5.18;;;4.60;;
75446;SDS011;64024;55.820;37.574;2023-06-22T14:14:51;8.63;;;5.00;;
75446;SDS011;64024;55.820;37.574;2023-06-22T14:17:17;5.95;;;4.07;;
75446;SDS011;64024;55.820;37.574;2023-06-22T14:19:49;6.25;;;4.32;;
75446;SDS011;64024;55.820;37.574;2023-06-22T14:22:15;4.80;;;3.80;;
75446;SDS011;64024;55.820;37.574;2023-06-22T14:24:40;5.53;;;3.92;;
75446;SDS011;64024;55.820;37.574;2023-06-22T14:27:06;5.38;;;4.00;;
75446;SDS011;64024;55.820;37.574;2023-06-22T14:29:34;6.43;;;4.20;;
75446;SDS011;64024;55.820;37.574;2023-06-22T14:32:00;9.40;;;5.25;;
75446;SDS011;64024;55.820;37.574;2023-06-22T14:34:25;5.53;;;3.78;;
75446;SDS011;64024;55.820;37.574;2023-06-22T14:36:51;5.07;;;4.35;;
75446;SDS011;64024;55.820;37.574;2023-06-22T14:39:16;8.20;;;4.63;;
75446;SDS011;64024;55.820;37.574;2023-06-22T14:41:42;4.78;;;4.28;;
75446;SDS011;64024;55.820;37.574;2023-06-22T14:44:08;5.03;;;4.20;;
75446;SDS011;64024;55.820;37.574;2023-06-22T14:46:33;8.52;;;4.28;;